Time;durP1;ratioP1;P1;durP2;ratioP2;P2;SDS_P1;SDS_P2;PMS_P1;PMS_P2;Temp;Humidity;BMP_temperature;BMP_pressure;BME280_temperature;BME280_humidity;BME280_pressure;Samples;Min_cycle;Max_cycle;Signal;HPM_P1;HPM_P2
2021/05/06 00:10:11;;;;;;;4.17;1.90;;;;;;;7.98;84.13;99870.81;636214;225;23720;-75
2021/05/06 00:30:56;;;;;;;3.72;1.90;;;;;;;8.28;83.59;99880.19;625701;225;32917;-75
2021/05/06 00:33:11;;;;;;;3.30;2.20;;;;;;;7.79;85.13;99888.13;644496;220;23640;-75
2021/05/06 00:35:39;;;;;;;4.33;2.00;;;;;;;7.71;85.21;99888.31;635713;224;24776;-75
2021/05/06 00:38:10;;;;;;;1.77;1.67;;;;;;;7.55;86.37;99889.79;634424;225;24980;-75
2021/05/06 00:40:45;;;;;;;3.17;1.83;;;;;;;7.43;86.71;99886.50;646201;221;24757;-75
2021/05/06 00:43:26;;;;;;;1.80;1.47;;;;;;;7.50;86.88;99885.50;646706;221;24887;-75
2021/05/06 00:56:37;;;;;;;4.10;1.60;;;;;;;7.40;86.70;99873.83;643028;220;24802;-75
2021/05/06 00:59:14;;;;;;;2.07;1.87;;;;;;;7.44;87.57;99879.08;641470;220;24808;-75
2021/05/06 01:04:35;;;;;;;3.77;2.00;;;;;;;7.23;88.20;99876.59;633353;222;25152;-74
2021/05/06 01:07:11;;;;;;;2.63;2.00;;;;;;;7.03;88.35;99875.69;642361;221;24852;-75
2021/05/06 01:09:36;;;;;;;2.60;2.07;;;;;;;6.88;89.84;99882.64;646870;220;24756;-74
2021/05/06 01:12:01;;;;;;;2.43;1.90;;;;;;;6.92;89.34;99880.98;649089;220;24742;-75
2021/05/06 01:14:27;;;;;;;2.07;1.67;;;;;;;7.02;89.36;99880.52;637865;225;24864;-75
2021/05/06 01:16:55;;;;;;;4.00;2.20;;;;;;;6.89;90.03;99878.63;634580;225;24814;-75
2021/05/06 01:19:23;;;;;;;2.70;1.90;;;;;;;7.15;89.74;99869.95;647261;221;24732;-75
2021/05/06 01:21:52;;;;;;;5.08;1.80;;;;;;;7.28;87.93;99863.25;629189;225;32629;-75
2021/05/06 01:24:20;;;;;;;4.90;2.03;;;;;;;7.29;88.00;99855.83;634994;225;23678;-75
2021/05/06 01:26:54;;;;;;;2.50;2.10;;;;;;;7.28;88.55;99854.20;646703;221;24748;-75
2021/05/06 01:29:22;;;;;;;2.13;1.70;;;;;;;7.34;88.14;99852.39;639113;224;24784;-75
2021/05/06 01:31:51;;;;;;;1.90;1.40;;;;;;;7.24;87.97;99852.84;644006;221;24781;-75
2021/05/06 01:34:16;;;;;;;2.70;1.97;;;;;;;7.25;88.50;99846.23;629280;225;26020;-75
2021/05/06 01:36:44;;;;;;;2.53;1.90;;;;;;;7.38;88.17;99849.87;634492;225;24823;-74
2021/05/06 01:42:01;;;;;;;5.30;1.73;;;;;;;7.43;87.61;99836.86;624123;225;24780;-75
2021/05/06 01:44:50;;;;;;;3.07;1.83;;;;;;;7.58;87.07;99830.00;632028;225;24801;-75
2021/05/06 01:47:10;;;;;;;5.20;1.50;;;;;;;7.63;85.67;99826.07;637846;225;24837;-75
2021/05/06 01:49:58;;;;;;;6.10;1.60;;;;;;;7.61;85.81;99826.69;646904;221;24771;-74
2021/05/06 01:57:36;;;;;;;3.53;1.60;;;;;;;7.69;86.29;99820.81;636724;225;25086;-75
2021/05/06 02:00:04;;;;;;;2.97;1.70;;;;;;;7.64;86.34;99826.41;636165;225;24805;-76
2021/05/06 02:02:29;;;;;;;2.30;1.63;;;;;;;7.77;85.91;99811.91;648064;220;24728;-75
2021/05/06 02:04:57;;;;;;;1.70;1.60;;;;;;;7.80;85.58;99812.09;636083;225;24894;-75
2021/05/06 02:07:25;;;;;;;2.80;1.50;;;;;;;8.14;85.01;99796.44;642727;220;43065;-75
2021/05/06 02:09:53;;;;;;;2.13;1.53;;;;;;;7.84;85.81;99793.55;635501;223;26073;-74
2021/05/06 02:12:21;;;;;;;1.90;1.30;;;;;;;8.17;84.59;99783.23;641957;220;32381;-75
2021/05/06 02:14:52;;;;;;;1.60;1.33;;;;;;;7.83;85.38;99794.52;637797;224;25376;-75
2021/05/06 02:17:17;;;;;;;2.60;1.60;;;;;;;7.74;85.79;99790.15;649872;220;24743;-75
2021/05/06 02:19:47;;;;;;;2.10;1.60;;;;;;;7.72;85.83;99790.77;647455;220;24816;-75
2021/05/06 02:22:13;;;;;;;2.30;1.40;;;;;;;7.75;86.47;99803.46;638125;225;24802;-75
2021/05/06 02:24:41;;;;;;;3.00;1.57;;;;;;;7.72;86.52;99805.00;636395;225;25118;-75
2021/05/06 02:27:08;;;;;;;3.67;1.50;;;;;;;7.60;86.50;99801.77;645024;221;24777;-75
2021/05/06 02:29:36;;;;;;;1.30;1.20;;;;;;;7.68;86.21;99799.30;638037;224;24816;-74
2021/05/06 02:32:05;;;;;;;3.00;1.80;;;;;;;7.66;86.70;99792.63;646736;221;24755;-75
2021/05/06 02:34:33;;;;;;;4.43;1.90;;;;;;;7.66;86.84;99783.56;638093;223;24806;-75
2021/05/06 02:37:01;;;;;;;6.37;2.27;;;;;;;7.56;86.85;99784.03;635960;224;24876;-75
2021/05/06 02:39:29;;;;;;;4.80;1.80;;;;;;;7.57;86.82;99787.78;641803;221;24857;-75
2021/05/06 02:41:57;;;;;;;2.30;1.40;;;;;;;7.68;86.79;99785.06;630970;225;32653;-75
2021/05/06 02:44:24;;;;;;;5.40;1.80;;;;;;;7.54;86.50;99759.59;627913;225;32664;-75
2021/05/06 02:46:52;;;;;;;2.83;1.47;;;;;;;8.01;85.63;99770.02;627943;225;43565;-74
2021/05/06 02:49:22;;;;;;;2.40;1.70;;;;;;;7.56;86.75;99771.09;638584;225;24826;-75
2021/05/06 02:51:51;;;;;;;3.77;1.80;;;;;;;7.45;86.84;99778.03;636430;225;24876;-75
2021/05/06 02:54:16;;;;;;;7.67;1.57;;;;;;;7.58;86.37;99782.94;649077;221;26920;-75
2021/05/06 02:56:50;;;;;;;2.90;1.50;;;;;;;7.51;86.86;99777.98;636033;225;24785;-74
2021/05/06 02:59:32;;;;;;;3.90;2.10;;;;;;;7.43;87.51;99780.42;645341;221;24730;-75
2021/05/06 03:04:19;;;;;;;4.27;2.00;;;;;;;7.52;87.37;99773.15;634386;224;24791;-75
2021/05/06 03:06:50;;;;;;;4.63;1.80;;;;;;;7.41;87.79;99777.16;649697;220;27891;-75
2021/05/06 03:09:28;;;;;;;5.03;2.10;;;;;;;7.30;87.42;99782.45;645859;220;24774;-75
2021/05/06 03:11:57;;;;;;;4.80;2.08;;;;;;;7.34;88.38;99789.83;628412;225;32653;-75
2021/05/06 03:14:32;;;;;;;3.80;1.60;;;;;;;7.30;87.71;99789.73;647166;221;25839;-75
2021/05/06 03:24:56;;;;;;;1.83;1.67;;;;;;;7.34;88.22;99787.72;631873;225;24814;-74
2021/05/06 03:27:26;;;;;;;3.30;1.63;;;;;;;7.19;88.53;99793.77;637610;225;24901;-74
2021/05/06 03:29:59;;;;;;;4.87;1.90;;;;;;;7.23;89.15;99802.87;636479;221;24828;-75
2021/05/06 03:32:25;;;;;;;2.80;1.63;;;;;;;7.19;89.18;99802.00;648295;221;27351;-75
2021/05/06 03:35:03;;;;;;;2.60;1.90;;;;;;;7.11;90.22;99785.36;646239;221;24821;-75
2021/05/06 03:42:31;;;;;;;4.40;2.23;;;;;;;7.20;90.80;99779.87;636851;221;24775;-74
2021/05/06 03:45:11;;;;;;;6.13;2.10;;;;;;;7.39;90.72;99774.70;631939;225;24964;-75
2021/05/06 04:03:30;;;;;;;3.60;1.87;;;;;;;7.33;90.12;99768.80;643950;221;24719;-75
2021/05/06 04:19:11;;;;;;;3.23;1.90;;;;;;;7.26;90.67;99784.98;645519;221;24793;-75
2021/05/06 04:21:43;;;;;;;3.08;1.80;;;;;;;7.49;90.06;99774.72;628585;225;32814;-75
2021/05/06 04:26:50;;;;;;;9.27;2.77;;;;;;;7.42;90.11;99768.44;636527;225;24787;-75
2021/05/06 04:37:13;;;;;;;3.03;1.60;;;;;;;7.36;90.58;99756.06;638131;221;24792;-75
2021/05/06 04:39:47;;;;;;;8.50;2.67;;;;;;;7.25;91.06;99760.88;641813;222;25074;-75
2021/05/06 04:42:35;;;;;;;7.30;1.97;;;;;;;7.43;91.84;99763.61;634683;225;24942;-75
2021/05/06 04:50:21;;;;;;;3.23;1.77;;;;;;;8.01;90.63;99729.88;637038;225;25840;-76
2021/05/06 04:55:25;;;;;;;7.27;2.50;;;;;;;8.42;89.81;99727.86;638337;225;23757;-73
2021/05/06 04:58:03;;;;;;;5.03;2.00;;;;;;;8.50;90.27;99738.34;635781;225;24806;-72
2021/05/06 05:05:32;;;;;;;2.70;1.60;;;;;;;8.74;89.49;99719.67;631650;225;32711;-72
2021/05/06 05:08:05;;;;;;;8.60;1.80;;;;;;;8.45;89.70;99728.89;636832;225;25796;-73
2021/05/06 05:10:43;;;;;;;2.43;1.80;;;;;;;8.24;90.76;99737.66;647096;221;24795;-73
2021/05/06 05:13:17;;;;;;;5.10;1.80;;;;;;;8.24;91.83;99740.72;635934;225;24816;-72
2021/05/06 05:18:44;;;;;;;5.33;1.97;;;;;;;8.30;91.18;99731.08;630834;220;24830;-73
2021/05/06 05:21:18;;;;;;;4.13;1.90;;;;;;;8.69;89.92;99729.16;643028;220;32391;-73
2021/05/06 05:23:44;;;;;;;3.03;1.83;;;;;;;8.38;91.22;99730.41;649934;220;24735;-73
2021/05/06 05:26:11;;;;;;;3.27;1.70;;;;;;;8.39;91.17;99733.33;644833;221;24766;-73
2021/05/06 05:28:38;;;;;;;4.13;2.00;;;;;;;8.59;90.75;99726.64;637347;225;24784;-73
2021/05/06 05:31:06;;;;;;;4.00;1.90;;;;;;;8.63;90.91;99720.67;633947;225;28035;-73
2021/05/06 05:33:38;;;;;;;4.83;2.27;;;;;;;8.55;90.62;99716.20;649576;220;24745;-73
2021/05/06 05:36:09;;;;;;;7.17;2.50;;;;;;;8.50;91.85;99726.67;637015;225;27038;-72
2021/05/06 05:38:41;;;;;;;3.40;2.20;;;;;;;8.48;91.29;99719.53;647706;221;25880;-73
2021/05/06 05:41:24;;;;;;;6.23;2.93;;;;;;;8.55;91.71;99705.83;647917;220;24776;-73
2021/05/06 05:43:54;;;;;;;4.47;2.63;;;;;;;8.55;92.39;99712.31;648944;218;25027;-73
2021/05/06 05:54:35;;;;;;;4.37;2.47;;;;;;;8.98;91.23;99718.61;633693;221;32710;-73
2021/05/06 05:57:02;;;;;;;4.40;2.10;;;;;;;9.07;90.41;99716.91;644335;218;32491;-72
2021/05/06 05:59:30;;;;;;;6.87;2.70;;;;;;;9.09;89.63;99711.09;631894;225;32570;-73
2021/05/06 06:01:57;;;;;;;2.53;2.33;;;;;;;8.66;92.31;99724.27;648224;220;25105;-73
2021/05/06 06:04:25;;;;;;;5.30;2.83;;;;;;;9.14;90.62;99715.34;631007;225;32851;-73
2021/05/06 06:06:53;;;;;;;7.50;3.40;;;;;;;8.73;91.09;99721.92;649289;220;27261;-73
2021/05/06 06:09:21;;;;;;;4.80;2.07;;;;;;;8.56;91.80;99723.50;639104;225;27960;-73
2021/05/06 06:11:49;;;;;;;7.00;2.80;;;;;;;8.60;91.88;99723.08;649661;220;24754;-73
2021/05/06 06:14:22;;;;;;;7.13;3.27;;;;;;;8.36;92.69;99725.85;638427;224;24750;-73
2021/05/06 06:16:45;;;;;;;4.70;2.50;;;;;;;8.47;93.03;99723.08;636692;225;24790;-73
2021/05/06 06:19:15;;;;;;;6.23;2.80;;;;;;;8.51;93.72;99716.64;637333;225;24788;-72
2021/05/06 06:21:44;;;;;;;12.00;2.97;;;;;;;8.43;93.46;99707.46;639481;222;24828;-72
2021/05/06 06:24:10;;;;;;;6.10;2.60;;;;;;;9.03;92.10;99703.92;635473;222;32642;-73
2021/05/06 06:26:37;;;;;;;3.50;2.30;;;;;;;8.52;92.85;99706.61;641938;222;24820;-72
2021/05/06 06:29:07;;;;;;;3.90;2.70;;;;;;;8.43;93.60;99711.34;638306;222;24864;-73
2021/05/06 06:31:37;;;;;;;4.70;2.73;;;;;;;8.22;93.16;99718.03;641859;221;24836;-72
2021/05/06 06:34:01;;;;;;;3.00;2.30;;;;;;;8.46;93.89;99712.38;642703;221;24796;-73
2021/05/06 06:36:29;;;;;;;3.70;2.80;;;;;;;8.39;93.32;99717.78;646254;221;24725;-72
2021/05/06 06:38:57;;;;;;;7.43;2.90;;;;;;;8.66;93.12;99708.72;636565;225;24778;-72
2021/05/06 06:41:25;;;;;;;2.63;2.10;;;;;;;8.31;93.67;99712.01;634550;225;25053;-74
2021/05/06 06:43:55;;;;;;;10.57;2.30;;;;;;;8.50;93.67;99708.53;648753;220;24754;-73
2021/05/06 06:46:21;;;;;;;4.60;2.17;;;;;;;9.01;91.78;99698.03;630462;225;34124;-73
2021/05/06 06:48:49;;;;;;;3.87;2.30;;;;;;;9.13;89.83;99706.75;635471;221;32548;-73
2021/05/06 06:51:17;;;;;;;4.80;3.10;;;;;;;8.48;92.04;99711.75;645119;221;23702;-73
2021/05/06 06:53:45;;;;;;;5.20;2.80;;;;;;;8.28;92.76;99716.97;636814;225;24866;-73
2021/05/06 06:56:13;;;;;;;5.90;2.70;;;;;;;8.22;93.63;99720.14;649479;218;24752;-73
2021/05/06 06:58:41;;;;;;;5.90;2.40;;;;;;;8.95;90.74;99718.09;642764;220;32392;-73
2021/05/06 07:01:08;;;;;;;4.67;2.60;;;;;;;8.27;93.56;99724.41;638187;225;24806;-73
2021/05/06 07:03:36;;;;;;;5.00;2.90;;;;;;;8.44;93.52;99715.09;639931;223;24805;-73
2021/05/06 07:06:04;;;;;;;4.13;2.70;;;;;;;8.49;93.19;99710.31;634254;225;25054;-73
2021/05/06 07:08:34;;;;;;;4.87;2.92;;;;;;;9.07;91.42;99696.16;630741;225;32710;-73
2021/05/06 07:11:00;;;;;;;5.60;2.70;;;;;;;8.76;92.85;99697.00;638710;225;23691;-73
2021/05/06 07:13:28;;;;;;;4.57;2.73;;;;;;;8.76;93.52;99702.19;635782;225;24784;-73
2021/05/06 07:15:56;;;;;;;4.60;3.10;;;;;;;9.04;92.54;99705.06;636566;225;24804;-71
2021/05/06 07:18:24;;;;;;;3.47;2.57;;;;;;;9.39;89.26;99690.43;641319;221;32988;-73
2021/05/06 07:20:52;;;;;;;5.10;2.90;;;;;;;9.79;89.13;99687.31;631420;225;32910;-73
2021/05/06 07:23:20;;;;;;;6.07;2.97;;;;;;;9.56;89.75;99695.25;631347;225;24997;-73
2021/05/06 07:25:47;;;;;;;6.80;3.50;;;;;;;10.17;88.00;99686.55;632116;225;32561;-73
2021/05/06 07:28:16;;;;;;;3.90;2.93;;;;;;;9.42;89.40;99681.85;632631;225;24916;-72
2021/05/06 07:30:44;;;;;;;7.30;2.72;;;;;;;10.02;87.64;99676.73;631721;225;32562;-73
2021/05/06 07:33:12;;;;;;;8.07;3.30;;;;;;;9.97;88.57;99680.27;637434;223;24808;-73
2021/05/06 07:35:40;;;;;;;5.30;3.53;;;;;;;10.10;88.14;99673.34;648708;220;24718;-71
2021/05/06 07:38:08;;;;;;;4.10;2.90;;;;;;;9.87;89.34;99673.09;636222;225;24773;-73
2021/05/06 07:40:36;;;;;;;5.00;2.70;;;;;;;9.64;89.93;99675.86;648898;220;24744;-72
2021/05/06 07:43:03;;;;;;;4.10;3.33;;;;;;;9.45;90.36;99680.28;649390;220;24725;-73
2021/05/06 07:45:31;;;;;;;10.40;3.40;;;;;;;9.65;90.25;99677.48;635663;225;26962;-73
2021/05/06 07:47:59;;;;;;;6.07;2.73;;;;;;;9.37;91.63;99681.98;649622;220;23735;-73
2021/05/06 07:50:27;;;;;;;9.77;2.93;;;;;;;9.64;89.57;99679.75;635842;224;24777;-73
2021/05/06 07:53:03;;;;;;;5.10;2.83;;;;;;;9.86;89.71;99680.55;636308;225;24799;-72
2021/05/06 07:55:23;;;;;;;4.27;3.43;;;;;;;10.18;89.86;99676.48;641890;221;24788;-73
2021/05/06 07:57:51;;;;;;;9.37;3.00;;;;;;;9.82;89.19;99669.62;650214;221;24816;-72
2021/05/06 08:00:21;;;;;;;6.63;3.20;;;;;;;9.19;90.79;99671.15;642622;221;24752;-72
2021/05/06 08:02:49;;;;;;;6.40;3.77;;;;;;;8.97;92.63;99679.85;635139;225;24794;-72
2021/05/06 08:05:15;;;;;;;7.03;3.33;;;;;;;8.86;94.01;99695.95;642003;221;43056;-72
2021/05/06 08:07:44;;;;;;;7.17;3.87;;;;;;;9.47;93.13;99693.91;647400;220;24729;-73
2021/05/06 08:10:12;;;;;;;7.00;3.80;;;;;;;9.86;91.77;99684.93;636591;225;24762;-73
2021/05/06 08:12:40;;;;;;;6.23;4.20;;;;;;;9.56;90.86;99682.28;635475;225;24756;-73
2021/05/06 08:15:09;;;;;;;43.77;28.10;;;;;;;8.96;93.67;99680.81;646095;220;24812;-73
2021/05/06 08:17:36;;;;;;;7.17;4.93;;;;;;;8.90;93.39;99675.27;638534;225;24795;-72
2021/05/06 08:20:06;;;;;;;5.30;3.60;;;;;;;9.24;92.67;99673.28;637348;225;24811;-73
2021/05/06 08:22:33;;;;;;;4.17;3.17;;;;;;;9.13;92.04;99669.13;635923;225;24837;-73
2021/05/06 08:25:01;;;;;;;5.67;2.93;;;;;;;9.47;93.66;99667.96;649571;220;25003;-72
2021/05/06 08:27:30;;;;;;;8.77;6.30;;;;;;;9.31;91.87;99667.03;636123;225;24811;-72
2021/05/06 08:29:56;;;;;;;5.93;3.30;;;;;;;9.58;92.73;99670.80;648384;220;24724;-73
2021/05/06 08:32:24;;;;;;;5.80;3.53;;;;;;;9.43;91.15;99665.34;640636;223;24779;-72
2021/05/06 08:34:52;;;;;;;12.67;8.60;;;;;;;9.96;90.40;99669.55;635546;223;32676;-72
2021/05/06 08:37:20;;;;;;;33.77;27.83;;;;;;;10.01;89.37;99663.42;652205;220;24741;-72
2021/05/06 08:39:48;;;;;;;26.63;22.03;;;;;;;10.07;88.84;99659.38;638063;224;25063;-72
2021/05/06 08:42:16;;;;;;;6.67;4.80;;;;;;;10.53;87.35;99655.99;649468;220;25790;-73
2021/05/06 08:44:44;;;;;;;6.40;3.70;;;;;;;10.46;86.67;99663.63;639119;224;26947;-73
2021/05/06 08:47:17;;;;;;;6.50;3.20;;;;;;;10.37;86.91;99658.87;648202;221;24688;-73
2021/05/06 08:49:42;;;;;;;6.17;3.20;;;;;;;10.17;86.39;99656.66;649535;220;24725;-73
2021/05/06 08:52:10;;;;;;;4.13;2.83;;;;;;;10.61;86.78;99658.14;644362;220;24727;-73
2021/05/06 08:54:39;;;;;;;6.10;3.07;;;;;;;10.36;86.11;99648.15;646256;220;24741;-73
2021/05/06 08:57:06;;;;;;;8.23;3.57;;;;;;;9.93;86.92;99663.36;636538;225;24795;-73
2021/05/06 08:59:34;;;;;;;9.33;3.30;;;;;;;9.56;87.85;99655.02;650069;220;24820;-72
2021/05/06 09:02:02;;;;;;;5.73;3.33;;;;;;;9.86;85.38;99651.16;637299;224;24768;-73
2021/05/06 09:04:31;;;;;;;5.47;3.17;;;;;;;9.75;87.62;99646.55;642155;221;24804;-73
2021/05/06 09:06:58;;;;;;;5.47;3.10;;;;;;;10.43;87.42;99649.65;646549;221;24740;-73
2021/05/06 09:09:26;;;;;;;6.30;3.40;;;;;;;10.30;83.73;99632.39;634864;225;31444;-72
2021/05/06 09:11:54;;;;;;;5.63;2.83;;;;;;;10.51;83.03;99630.16;646156;220;24716;-73
2021/05/06 09:14:34;;;;;;;6.00;3.70;;;;;;;10.20;83.79;99642.05;636102;222;24770;-72
2021/05/06 09:17:03;;;;;;;6.87;2.90;;;;;;;9.98;84.40;99653.31;649445;220;24728;-72
2021/05/06 09:19:31;;;;;;;10.17;2.90;;;;;;;9.80;85.65;99656.47;639310;222;24827;-73
2021/05/06 09:21:59;;;;;;;6.37;3.40;;;;;;;10.08;86.12;99650.13;638601;224;29125;-73
2021/05/06 09:24:28;;;;;;;4.67;2.77;;;;;;;9.63;85.56;99657.34;635165;225;24774;-72
2021/05/06 09:26:56;;;;;;;4.00;3.30;;;;;;;9.60;87.37;99659.77;650175;220;24737;-72
2021/05/06 09:29:30;;;;;;;5.80;3.00;;;;;;;9.92;87.25;99657.84;645590;221;24781;-72
2021/05/06 09:32:09;;;;;;;10.53;2.80;;;;;;;10.26;85.29;99644.05;631387;225;24837;-73
2021/05/06 09:34:37;;;;;;;5.70;2.97;;;;;;;10.42;83.76;99629.02;647765;220;24744;-72
2021/05/06 09:37:07;;;;;;;7.30;2.77;;;;;;;10.78;83.61;99631.67;637766;225;24723;-73
2021/05/06 09:39:33;;;;;;;6.43;3.20;;;;;;;10.93;83.66;99627.94;648468;221;23728;-73
2021/05/06 09:42:07;;;;;;;6.63;3.03;;;;;;;11.11;81.70;99627.28;625786;224;24785;-73
2021/05/06 09:44:51;;;;;;;6.23;2.77;;;;;;;11.50;81.74;99622.21;635453;225;24795;-73
2021/05/06 09:47:22;;;;;;;8.00;2.50;;;;;;;11.48;81.34;99610.34;633802;225;25903;-73
2021/05/06 09:49:50;;;;;;;8.40;3.10;;;;;;;10.88;80.49;99608.11;643869;220;32845;-73
2021/05/06 09:52:18;;;;;;;7.80;3.17;;;;;;;10.29;82.44;99611.27;649925;220;24197;-72
2021/05/06 09:54:47;;;;;;;4.70;2.90;;;;;;;10.31;83.14;99615.81;638077;225;25940;-73
2021/05/06 09:57:15;;;;;;;5.47;2.97;;;;;;;10.66;82.09;99606.94;647085;220;24818;-73
2021/05/06 09:59:43;;;;;;;6.40;3.00;;;;;;;10.64;82.84;99603.20;648541;220;29220;-72
2021/05/06 10:02:11;;;;;;;9.97;2.83;;;;;;;10.46;81.81;99588.72;650451;220;24727;-73
2021/05/06 10:04:40;;;;;;;6.37;3.40;;;;;;;10.42;82.64;99593.44;635123;225;24871;-73
2021/05/06 10:07:09;;;;;;;4.60;2.80;;;;;;;10.38;82.58;99598.59;636840;225;24837;-73
2021/05/06 10:09:50;;;;;;;5.50;3.10;;;;;;;10.39;83.93;99593.23;640597;223;24829;-73
2021/05/06 10:12:18;;;;;;;7.10;2.70;;;;;;;10.40;83.97;99587.06;646872;221;24819;-73
2021/05/06 10:14:46;;;;;;;10.93;3.00;;;;;;;10.78;83.22;99580.13;649270;221;27164;-73
2021/05/06 10:17:15;;;;;;;6.33;3.00;;;;;;;10.45;83.77;99571.01;637197;225;24756;-74
2021/05/06 10:19:46;;;;;;;5.40;2.43;;;;;;;10.35;82.49;99559.94;640952;221;24778;-73
2021/05/06 10:22:15;;;;;;;6.50;2.73;;;;;;;10.87;82.17;99569.58;635450;225;24907;-73
2021/05/06 10:24:43;;;;;;;8.77;3.27;;;;;;;10.42;82.08;99562.23;636499;225;24760;-73
2021/05/06 10:27:11;;;;;;;4.70;3.13;;;;;;;10.33;83.49;99559.28;635568;225;24827;-73
2021/05/06 10:29:39;;;;;;;10.30;3.95;;;;;;;10.36;83.23;99569.36;632314;219;32609;-73
2021/05/06 10:32:08;;;;;;;5.20;3.00;;;;;;;10.24;84.47;99562.83;636463;224;23705;-72
2021/05/06 10:34:36;;;;;;;5.50;3.40;;;;;;;10.35;84.67;99563.83;650203;220;28482;-73
2021/05/06 10:37:04;;;;;;;5.70;3.00;;;;;;;10.26;84.33;99569.98;635926;225;24895;-72
2021/05/06 10:39:40;;;;;;;7.63;3.27;;;;;;;11.06;83.57;99552.80;630725;225;32563;-73
2021/05/06 10:42:32;;;;;;;8.13;3.20;;;;;;;11.20;81.67;99541.72;631056;225;43276;-73
2021/05/06 10:45:00;;;;;;;5.33;3.60;;;;;;;11.35;82.69;99536.65;648643;220;23678;-73
2021/05/06 10:47:54;;;;;;;5.23;3.30;;;;;;;11.51;82.24;99524.88;638164;221;24832;-73
2021/05/06 10:50:23;;;;;;;5.27;3.20;;;;;;;11.55;81.12;99524.08;623978;225;32830;-73
2021/05/06 10:52:51;;;;;;;5.47;3.30;;;;;;;11.76;81.46;99537.33;648540;221;24755;-73
2021/05/06 10:55:40;;;;;;;7.93;3.30;;;;;;;11.69;82.13;99540.30;634600;225;25182;-73
2021/05/06 10:58:35;;;;;;;6.33;3.40;;;;;;;11.86;81.29;99535.37;629936;225;43952;-73
2021/05/06 11:01:24;;;;;;;10.30;4.27;;;;;;;11.82;82.79;99537.16;629603;225;23715;-73
2021/05/06 11:04:04;;;;;;;6.80;3.87;;;;;;;11.46;85.14;99551.11;636118;225;24767;-74
2021/05/06 11:06:37;;;;;;;8.40;4.07;;;;;;;10.93;87.41;99553.30;647162;221;24698;-73
2021/05/06 11:09:14;;;;;;;6.80;3.20;;;;;;;10.87;89.88;99547.95;635045;225;24828;-73
2021/05/06 11:11:42;;;;;;;11.20;3.60;;;;;;;10.85;90.21;99546.01;645344;221;24768;-73
2021/05/06 11:14:10;;;;;;;6.67;4.00;;;;;;;10.73;92.25;99534.30;647552;221;24744;-73
2021/05/06 11:16:39;;;;;;;9.83;3.97;;;;;;;10.65;92.92;99531.20;637713;225;24760;-73
2021/05/06 11:19:06;;;;;;;8.70;4.33;;;;;;;10.64;92.98;99525.67;649018;220;24759;-73
2021/05/06 11:21:40;;;;;;;8.33;4.50;;;;;;;10.93;91.79;99516.06;626365;224;32653;-73
2021/05/06 11:24:13;;;;;;;11.30;4.97;;;;;;;10.72;93.41;99524.39;649864;219;24722;-73
2021/05/06 11:26:52;;;;;;;15.30;6.40;;;;;;;10.54;93.66;99523.23;637467;225;24814;-73
2021/05/06 11:29:28;;;;;;;7.70;4.60;;;;;;;10.42;95.67;99525.03;650229;220;24740;-73
2021/05/06 11:31:56;;;;;;;13.77;4.77;;;;;;;10.26;96.85;99524.50;636649;225;24783;-73
2021/05/06 11:34:34;;;;;;;8.03;4.17;;;;;;;10.14;96.88;99521.37;647641;221;24745;-73
2021/05/06 11:37:09;;;;;;;10.63;4.50;;;;;;;10.14;96.93;99523.98;636839;225;26941;-73
2021/05/06 11:39:37;;;;;;;6.50;4.50;;;;;;;10.14;97.04;99504.49;648643;221;24744;-73
2021/05/06 11:42:09;;;;;;;7.70;4.77;;;;;;;10.45;96.22;99501.31;638986;224;24749;-73
2021/05/06 11:44:37;;;;;;;6.83;4.33;;;;;;;10.62;95.49;99495.94;649358;220;24761;-73
2021/05/06 11:47:05;;;;;;;5.37;4.07;;;;;;;10.37;95.73;99490.41;651564;220;24714;-73
2021/05/06 11:49:33;;;;;;;12.13;4.13;;;;;;;10.38;95.12;99483.73;649692;220;28027;-73
2021/05/06 11:52:01;;;;;;;8.93;4.17;;;;;;;10.26;95.92;99486.81;651762;219;24775;-73
2021/05/06 11:54:29;;;;;;;10.33;4.30;;;;;;;10.33;97.69;99486.51;638319;224;24806;-72
2021/05/06 11:56:57;;;;;;;5.20;3.77;;;;;;;10.50;96.48;99475.13;635424;225;24835;-73
2021/05/06 11:59:24;;;;;;;7.83;4.00;;;;;;;10.34;97.30;99466.04;635463;225;24819;-72
2021/05/06 12:01:52;;;;;;;10.37;4.50;;;;;;;10.72;97.46;99466.36;636675;225;24802;-72
2021/05/06 12:04:23;;;;;;;5.60;3.20;;;;;;;10.62;97.67;99460.02;636792;225;24798;-72
2021/05/06 12:06:50;;;;;;;7.50;2.97;;;;;;;10.86;96.02;99451.38;649912;221;24805;-72
2021/05/06 12:09:23;;;;;;;4.60;2.77;;;;;;;10.74;93.36;99447.02;649906;221;26081;-73
2021/05/06 12:11:51;;;;;;;3.63;2.40;;;;;;;10.53;92.51;99436.30;638579;225;24858;-72
2021/05/06 12:14:28;;;;;;;4.47;2.47;;;;;;;10.50;92.12;99432.23;649800;221;24755;-72
2021/05/06 12:16:57;;;;;;;2.60;2.00;;;;;;;10.46;91.31;99438.75;637442;225;24745;-73
2021/05/06 12:19:26;;;;;;;5.27;2.30;;;;;;;10.08;92.94;99453.97;642074;220;24801;-74
2021/05/06 12:21:56;;;;;;;2.97;2.10;;;;;;;10.13;95.37;99448.28;644943;221;24771;-74
2021/05/06 12:24:26;;;;;;;7.13;2.63;;;;;;;10.54;95.11;99445.72;625096;225;24845;-73
2021/05/06 12:26:55;;;;;;;3.10;1.93;;;;;;;10.41;92.96;99437.11;643969;221;24774;-74
2021/05/06 12:29:23;;;;;;;3.43;2.43;;;;;;;10.34;94.23;99434.85;650273;219;24778;-72
2021/05/06 12:31:50;;;;;;;5.03;2.47;;;;;;;10.54;92.97;99427.52;651073;220;24714;-71
2021/05/06 12:34:19;;;;;;;3.57;2.70;;;;;;;11.00;93.66;99419.48;634719;225;24887;-71
2021/05/06 12:36:50;;;;;;;3.73;2.47;;;;;;;10.78;93.67;99419.69;637791;222;24831;-71
2021/05/06 12:39:18;;;;;;;4.60;2.77;;;;;;;10.73;94.58;99427.67;648808;221;27935;-72
2021/05/06 12:41:52;;;;;;;2.93;2.73;;;;;;;10.75;93.76;99416.61;636434;225;24771;-71
2021/05/06 12:44:33;;;;;;;6.10;2.43;;;;;;;10.65;94.24;99418.89;649059;221;24740;-72
2021/05/06 12:47:14;;;;;;;3.80;2.17;;;;;;;10.31;95.56;99415.20;627072;225;24819;-71
2021/05/06 12:49:42;;;;;;;3.50;3.20;;;;;;;10.34;95.75;99415.36;645337;221;24736;-70
2021/05/06 12:52:28;;;;;;;5.00;2.60;;;;;;;10.31;96.26;99417.80;642954;219;24753;-70
2021/05/06 12:54:56;;;;;;;4.90;2.67;;;;;;;10.08;97.22;99412.39;648793;220;24983;-70
2021/05/06 12:57:24;;;;;;;3.30;2.70;;;;;;;10.23;96.04;99403.98;630384;225;32616;-70
2021/05/06 12:59:52;;;;;;;3.13;2.93;;;;;;;10.10;97.51;99394.85;646359;221;24740;-70
2021/05/06 13:02:20;;;;;;;3.40;3.07;;;;;;;10.04;97.03;99392.92;645685;221;24793;-71
2021/05/06 13:04:48;;;;;;;9.20;3.17;;;;;;;10.03;97.19;99382.69;648075;220;24764;-71
2021/05/06 13:07:16;;;;;;;4.00;3.17;;;;;;;10.08;96.31;99375.21;637365;225;24762;-71
2021/05/06 13:09:44;;;;;;;4.50;3.80;;;;;;;10.42;96.89;99380.77;642527;222;24821;-71
2021/05/06 13:12:13;;;;;;;5.97;3.63;;;;;;;10.52;97.28;99374.39;636816;225;31207;-70
2021/05/06 13:14:45;;;;;;;3.90;3.43;;;;;;;10.64;96.79;99369.16;637314;225;24819;-71
2021/05/06 13:17:23;;;;;;;3.53;3.03;;;;;;;10.72;96.58;99364.94;634013;225;25207;-70
2021/05/06 13:19:51;;;;;;;4.10;3.37;;;;;;;10.65;95.69;99355.67;648120;220;24772;-71
2021/05/06 13:22:19;;;;;;;4.07;3.27;;;;;;;10.90;95.95;99356.41;634913;225;24797;-71
2021/05/06 13:24:49;;;;;;;5.97;4.07;;;;;;;11.12;95.56;99353.08;648018;221;24737;-71
2021/05/06 13:27:15;;;;;;;7.40;3.53;;;;;;;11.17;95.46;99342.16;639311;223;24850;-70
2021/05/06 13:29:48;;;;;;;4.37;3.40;;;;;;;10.96;95.17;99336.22;647042;220;24741;-71
2021/05/06 13:32:16;;;;;;;5.10;3.00;;;;;;;10.63;96.29;99331.14;646068;220;24766;-70
2021/05/06 13:34:53;;;;;;;7.78;4.53;;;;;;;10.90;95.97;99327.30;642793;220;32432;-70
2021/05/06 13:37:21;;;;;;;4.20;3.57;;;;;;;10.77;96.41;99319.23;647970;220;23641;-70
2021/05/06 13:39:49;;;;;;;5.37;3.43;;;;;;;10.77;97.41;99308.02;636783;225;29088;-71
2021/05/06 13:42:17;;;;;;;6.40;2.63;;;;;;;10.87;97.20;99300.83;647765;221;24932;-70
2021/05/06 13:44:45;;;;;;;4.08;2.50;;;;;;;10.87;93.55;99282.62;631520;223;32612;-70
2021/05/06 13:47:13;;;;;;;5.43;3.20;;;;;;;10.80;94.81;99292.87;648329;221;23649;-70
2021/05/06 13:49:41;;;;;;;6.20;2.10;;;;;;;10.72;95.94;99297.31;635961;225;25109;-70
2021/05/06 13:52:10;;;;;;;2.62;2.40;;;;;;;10.90;94.33;99288.77;630269;225;32948;-70
2021/05/06 13:54:37;;;;;;;3.70;1.97;;;;;;;10.59;96.18;99280.95;649506;220;23679;-70
2021/05/06 13:57:05;;;;;;;3.40;2.40;;;;;;;10.41;97.12;99290.24;631901;225;28011;-70